Latest Coastal Weather Observations for Ballina

IDN60701

Issued at 9:15 am EST Tuesday 2 September 2014 (issued every 10 minutes, with the page automatically refreshed every 10 minutes)

About coastal observations | Map of coastal stations | Coastal observations for NSW | Marine services | Other Formats
Station Details ID: 058198 Name: BALLINA AIRPORT AWS Lat: -28.84 Lon: 153.56 Height: 1.3 m
Data from the previous 72 hours. | See also: Recent months at Ballina
Date/Time
EST
Temp

°C
Wind Pressure Rain
since 9am
mm
Weather Cloud Vis
km
Sea
Height
m
Swell
Dir
 
Speed
knots
Gust
knots
hPa Trend Height
m
Period
s
Dir
02/09:00am 16.5 N 3 5 1011.7 - 1.0 - Cloudy 10 - - - -
02/08:30am 17.2 NNW 4 6 1012.0 - 1.0 - - 10 - - - -
02/08:00am 17.3 N 6 8 1012.0 - 1.0 - - 10 - - - -
02/07:30am 17.1 N 9 11 1012.0 - 1.0 - - 10 - - - -
02/07:00am 16.6 N 7 11 1012.0 - 1.0 - - 10 - - - -
02/06:30am 15.0 N 3 5 1012.0 - 1.0 - - 10 - - - -
02/06:00am 15.3 N 3 4 1012.0 - 1.0 - Cloudy 10 - - - -
02/05:30am 15.6 N 7 9 1011.9 - 1.0 - - 10 - - - -
02/05:00am 15.2 N 4 5 1012.0 - 1.0 - - 10 - - - -
02/04:30am 15.5 NNE 5 7 1012.2 - 1.0 - - 10 - - - -
02/04:00am 16.0 NW 4 6 1012.1 - 1.0 - - 10 - - - -
02/03:30am 16.5 N 5 7 1012.3 - 1.0 - - 10 - - - -
02/03:00am 16.6 N 5 7 1012.5 - 1.0 - Cloudy 10 - - - -
02/02:30am 17.1 N 9 13 1012.7 - 1.0 - - 10 - - - -
02/02:00am 16.9 N 9 12 1013.0 - 1.0 - - 10 - - - -
02/01:30am 17.0 N 9 13 1013.5 - 1.0 - - 10 - - - -
02/01:00am 16.8 N 8 12 1014.0 - 1.0 - - 10 - - - -
02/12:30am 17.1 N 9 12 1014.4 - 1.0 - - 10 - - - -
02/12:00am 17.3 N 9 13 1014.7 - 1.0 - Cloudy 10 - - - -
 
Date/Time
EST
Temp

°C
Wind Pressure Rain
since 9am
mm
Weather Cloud Vis
km
Sea
Height
m
Swell
Dir
 
Speed
knots
Gust
knots
hPa Trend Height
m
Period
s
Dir
01/11:30pm 17.5 N 9 11 1014.8 - 1.0 - - 10 - - - -
01/11:00pm 17.7 N 10 12 1015.0 - 1.0 - - 10 - - - -
01/10:30pm 17.9 N 9 12 1015.0 - 1.0 - - 10 - - - -
01/10:00pm 18.1 N 10 14 1014.9 - 1.0 - - 10 - - - -
01/09:30pm 18.1 N 10 13 1015.1 - 1.0 - - 10 - - - -
01/09:00pm 18.1 N 9 13 1015.4 - 1.0 - Partly cloudy 10 - - - -
01/08:30pm 18.4 N 9 15 1015.4 - 1.0 - - 10 - - - -
01/08:00pm 18.6 N 11 16 1015.5 - 1.0 - - 10 - - - -
01/07:30pm 18.6 N 10 15 1015.2 - 1.0 - - 10 - - - -
01/07:00pm 18.9 N 11 16 1015.1 - 1.0 - - 10 - - - -
01/06:30pm 18.8 NNE 11 16 1014.9 - 1.0 - - 10 - - - -
01/06:00pm 18.7 NNE 10 14 1014.6 - 1.0 - - 10 - - - -
01/05:30pm 19.1 NNE 11 16 1014.5 - 1.0 - - 10 - - - -
01/05:00pm 20.2 N 11 17 1014.7 - 1.0 - - 10 - - - -
01/04:30pm 20.6 NNE 12 17 1014.3 - 1.0 - - 10 - - - -
01/04:00pm 21.1 NNE 13 20 1014.2 - 1.0 - - 10 - - - -
01/03:30pm 21.6 NE 13 17 1014.4 - 1.0 - - 10 - - - -
01/03:00pm 21.5 NE 14 19 1014.5 - 1.0 - - 10 - - - -
01/02:30pm 22.1 NNE 13 17 1014.8 - 1.0 - Partly cloudy 10 - - - -
01/02:00pm 22.0 NE 13 17 1015.1 - 1.0 - Partly cloudy 10 - - - -
01/01:30pm 21.6 NE 14 18 1015.5 - 1.0 - Partly cloudy 10 - - - -
01/01:00pm 20.1 NE 13 18 1015.9 - 1.0 - Partly cloudy 10 - - - -
01/12:30pm 21.6 NE 13 16 1016.2 - 0.0 - Partly cloudy 10 - - - -
01/12:00pm 22.1 NE 11 15 1017.1 - 0.0 - Mostly clear 10 - - - -
01/11:30am 21.3 ENE 11 13 1017.6 - 0.0 - Partly cloudy 10 - - - -
01/11:00am 22.0 NE 10 13 1018.3 - 0.0 - Partly cloudy 10 - - - -
01/10:30am 22.1 NNE 7 10 1018.7 - 0.0 - Partly cloudy 10 - - - -
01/10:00am 21.5 N 4 7 1018.9 - 0.0 - Partly cloudy 10 - - - -
01/09:30am 21.1 NNW 5 10 1019.1 - 0.0 - Partly cloudy 10 - - - -
01/09:00am 20.5 NNW 4 6 1019.4 - 0.0 - Mostly cloudy 10 - - - -
01/08:30am 18.5 CALM 0 3 1019.4 - 0.0 - Partly cloudy 10 - - - -
01/08:00am 16.4 CALM 0 0 1019.3 - 0.0 - Partly cloudy 10 - - - -
01/07:30am 15.6 NNW 3 4 1019.1 - 0.0 - Cloudy 10 - - - -
01/07:00am 14.6 CALM 0 0 1019.0 - 0.0 - Cloudy 10 - - - -
01/06:30am 13.9 CALM 0 0 1018.7 - 0.0 - Cloudy 10 - - - -
01/06:00am 13.7 CALM 0 0 1018.7 - 0.0 - Mostly cloudy 10 - - - -
01/05:30am 13.8 CALM 0 0 1018.3 - 0.0 - Cloudy 10 - - - -
01/05:00am 13.8 CALM 0 0 1018.0 - 0.0 - Partly cloudy 10 - - - -
01/04:30am 14.2 CALM 0 0 1018.0 - 0.0 - Cloudy 10 - - - -
01/04:00am 14.4 CALM 0 0 1017.9 - 0.0 - Cloudy 10 - - - -
01/03:30am 14.8 W 4 4 1018.0 - 0.0 - Partly cloudy 10 - - - -
01/03:00am 14.7 W 4 4 1018.0 - 0.0 - Cloudy 10 - - - -
01/02:30am 14.5 WNW 3 3 1018.1 - 0.0 - Partly cloudy 10 - - - -
01/02:00am 14.0 CALM 0 0 1018.2 - 0.0 - Cloudy 10 - - - -
01/01:30am 13.9 CALM 0 0 1018.4 - 0.0 - Cloudy 10 - - - -
01/01:00am 14.1 CALM 0 0 1018.6 - 0.0 - Partly cloudy 10 - - - -
01/12:30am 14.4 CALM 0 0 1018.7 - 0.0 - Partly cloudy 10 - - - -
01/12:16am 14.2 CALM 0 0 1018.6 - 0.0 - Partly cloudy 10 - - - -
01/12:00am 14.5 CALM 0 0 1018.7 - 0.0 - Partly cloudy 2 - - - -
 
Date/Time
EST
Temp

°C
Wind Pressure Rain
since 9am
mm
Weather Cloud Vis
km
Sea
Height
m
Swell
Dir
 
Speed
knots
Gust
knots
hPa Trend Height
m
Period
s
Dir
31/11:57pm 14.0 CALM 0 0 1018.7 - 0.0 - Partly cloudy 3 - - - -
31/11:30pm 14.3 CALM 0 0 1018.7 - 0.0 - Cloudy 10 - - - -
31/11:00pm 14.3 CALM 0 0 1018.9 - 0.0 - Partly cloudy 10 - - - -
31/10:30pm 14.7 NW 1 3 1018.8 - 0.0 - Partly cloudy 10 - - - -
31/10:00pm 15.0 NW 2 3 1018.8 - 0.0 - Partly cloudy 10 - - - -
31/09:30pm 14.9 NW 2 3 1018.8 - 0.0 - Partly cloudy 10 - - - -
31/09:00pm 15.2 NW 3 4 1018.7 - 0.0 - Cloudy 10 - - - -
31/08:30pm 14.6 WSW 3 4 1018.7 - 0.0 - Partly cloudy 10 - - - -
31/08:00pm 14.9 SSW 1 4 1018.6 - 0.0 - Partly cloudy 10 - - - -
31/07:30pm 16.2 S 3 4 1018.6 - 0.0 - Partly cloudy 10 - - - -
31/07:00pm 16.4 SSE 4 6 1018.2 - 0.0 - - 10 - - - -
31/06:30pm 17.0 SSE 7 9 1017.7 - 0.0 - - 10 - - - -
31/06:00pm 16.9 SSE 7 9 1017.5 - 0.0 - - 10 - - - -
31/05:30pm 17.4 SSE 7 10 1017.2 - 0.0 - - 10 - - - -
31/05:00pm 18.3 SE 9 12 1017.0 - 0.0 - - 10 - - - -
31/04:30pm 18.9 SSE 9 12 1017.1 - 0.0 - - 10 - - - -
31/04:00pm 19.3 SSE 10 13 1017.0 - 0.0 - - 10 - - - -
31/03:30pm 19.7 SSE 10 14 1016.8 - 0.0 - - 10 - - - -
31/03:00pm 20.5 SSE 12 17 1016.6 - 0.0 - - 10 - - - -
31/02:30pm 20.7 S 14 21 1016.7 - 0.0 - - 10 - - - -
31/02:00pm 20.3 SSE 14 18 1016.8 - 0.0 - - 10 - - - -
31/01:30pm 20.2 S 14 18 1016.9 - 0.0 - - 10 - - - -
31/01:00pm 21.0 S 14 18 1017.1 - 0.0 - - 10 - - - -
31/12:30pm 20.5 S 14 17 1017.6 - 0.0 - - 10 - - - -
31/12:00pm 20.8 S 12 16 1017.9 - 0.0 - - 10 - - - -
31/11:30am 21.1 S 12 17 1018.3 - 0.0 - - 10 - - - -
31/11:00am 20.8 SSW 10 14 1018.6 - 0.0 - Partly cloudy 10 - - - -
31/10:30am 20.7 SW 10 13 1018.9 - 0.0 - Partly cloudy 10 - - - -
31/10:00am 20.3 SSW 11 16 1019.0 - 0.0 - Partly cloudy 10 - - - -
31/09:30am 19.5 SSW 11 15 1019.2 - 0.0 - Partly cloudy 10 - - - -
31/09:00am 19.0 SW 10 14 1019.3 - 0.0 - Clear 10 - - - -
31/08:30am 19.0 WSW 9 13 1019.2 - 0.0 - - 10 - - - -
31/08:00am 18.1 WSW 7 9 1019.3 - 0.0 - Partly cloudy 10 - - - -
31/07:30am 17.0 WSW 7 9 1019.2 - 0.0 - - 10 - - - -
31/07:00am 15.7 WSW 7 8 1019.0 - 0.0 - Partly cloudy 10 - - - -
31/06:30am 14.7 W 7 8 1018.8 - 0.0 - Cloudy 10 - - - -
31/06:00am 14.5 W 7 8 1018.6 - 0.0 - Cloudy 10 - - - -
31/05:30am 14.4 W 7 9 1018.4 - 0.0 - Cloudy 10 - - - -
31/05:00am 14.4 W 7 8 1017.9 - 0.0 - Cloudy 10 - - - -
31/04:30am 14.4 W 7 8 1017.9 - 0.0 - Cloudy 10 - - - -
31/04:00am 13.7 W 7 7 1017.8 - 0.0 - Cloudy 8 - - - -
31/03:30am 12.0 CALM 0 3 1017.8 - 0.0 - Cloudy 10 - - - -
31/03:13am 11.7 CALM 0 2 1017.7 - 0.0 - Cloudy 10 - - - -
31/03:00am 11.2 W 5 6 1017.8 - 0.0 - Partly cloudy 4 - - - -
31/02:30am 11.5 W 4 5 1017.7 - 0.0 - Partly cloudy 3 - - - -
31/02:27am 11.4 W 4 5 1017.8 - 0.0 - - 5 - - - -
31/02:22am 11.6 W 4 4 1017.8 - 0.0 - - 10 - - - -
31/02:00am 12.1 W 3 4 1017.9 - 0.0 - Partly cloudy 3 - - - -
31/01:30am 12.1 W 3 4 1018.2 - 0.0 - Partly cloudy 3 - - - -
31/01:00am 12.5 WNW 3 4 1018.4 - 0.0 - Partly cloudy 2 - - - -
31/12:52am 12.4 NW 4 5 1018.4 - 0.0 - Partly cloudy 5 - - - -
31/12:30am 12.0 W 3 4 1018.5 - 0.0 - - 10 - - - -
31/12:00am 12.1 W 5 6 1018.6 - 0.0 - - 10 - - - -
 
Date/Time
EST
Temp

°C
Wind Pressure Rain
since 9am
mm
Weather Cloud Vis
km
Sea
Height
m
Swell
Dir
 
Speed
knots
Gust
knots
hPa Trend Height
m
Period
s
Dir
30/11:30pm 12.9 W 3 5 1018.5 - 0.0 - - 10 - - - -
30/11:00pm 13.1 W 5 6 1018.5 - 0.0 - - 10 - - - -
30/10:30pm 13.6 WSW 5 6 1018.4 - 0.0 - - 10 - - - -
30/10:00pm 14.4 WSW 6 7 1018.3 - 0.0 - - 10 - - - -
30/09:30pm 14.0 WSW 4 5 1018.3 - 0.0 - - 10 - - - -
30/09:00pm 14.6 W 3 4 1018.3 - 0.0 - - 10 - - - -
30/08:30pm 15.2 WSW 4 4 1018.3 - 0.0 - - 10 - - - -
30/08:00pm 14.8 WSW 5 6 1018.2 - 0.0 - - 10 - - - -
30/07:30pm 15.1 WSW 5 7 1018.0 - 0.0 - - 10 - - - -
30/07:00pm 16.8 SW 5 7 1017.8 - 0.0 - - 10 - - - -
30/06:30pm 16.9 SW 6 8 1017.7 - 0.0 - - 10 - - - -
30/06:00pm 17.7 SW 6 8 1017.5 - 0.0 - - 10 - - - -
30/05:30pm 18.0 SW 5 6 1017.3 - 0.0 - Partly cloudy 10 - - - -
30/05:00pm 18.9 SSW 8 14 1017.3 - 0.0 - Partly cloudy 10 - - - -
30/04:30pm 19.3 SSW 10 16 1017.2 - 0.0 - Partly cloudy 10 - - - -
30/04:00pm 19.2 S 11 16 1017.1 - 0.0 - Partly cloudy 10 - - - -
30/03:30pm 19.8 S 13 18 1017.0 - 0.0 - Partly cloudy 10 - - - -
30/03:00pm 20.2 S 14 19 1017.1 - 0.0 - Partly cloudy 10 - - - -
30/02:30pm 20.3 S 14 19 1017.1 - 0.0 - Partly cloudy 10 - - - -
30/02:00pm 20.3 S 15 21 1017.2 - 0.0 - - 10 - - - -
30/01:30pm 20.3 S 15 20 1017.4 - 0.0 - - 10 - - - -
30/01:00pm 20.0 S 15 20 1017.7 - 0.0 - Partly cloudy 10 - - - -
30/12:30pm 19.9 SW 9 13 1018.0 - 0.0 - Partly cloudy 10 - - - -
30/12:00pm 19.8 SW 10 19 1018.6 - 0.0 - Mostly cloudy 10 - - - -
30/11:30am 19.9 SW 10 15 1018.8 - 0.0 - Partly cloudy 10 - - - -
30/11:00am 18.8 SW 11 15 1019.1 - 0.0 - Cloudy 10 - - - -
30/10:30am 18.5 WSW 11 15 1019.4 - 0.0 - Cloudy 10 - - - -
30/10:00am 18.1 W 11 15 1019.5 - 0.0 - Cloudy 10 - - - -
30/09:30am 17.6 W 11 15 1019.7 - 0.0 - Cloudy 10 - - - -

Other Formats:

Comma delimited format used in spreadsheet applications
http://www.bom.gov.au/fwo/IDN60701/IDN60701.94596.axf

JavaScript Object Notation format (JSON) in row-major order
http://www.bom.gov.au/fwo/IDN60701/IDN60701.94596.json